sensor_id;sensor_type;location;lat;lon;timestamp;P1;durP1;ratioP1;P2;durP2;ratioP2
58250;SDS011;51449;51.676;5.812;2022-12-18T00:02:12;61.07;;;25.70;;
58250;SDS011;51449;51.676;5.812;2022-12-18T00:04:34;55.70;;;25.27;;
58250;SDS011;51449;51.676;5.812;2022-12-18T00:06:56;58.00;;;24.40;;
58250;SDS011;51449;51.676;5.812;2022-12-18T00:09:18;56.65;;;24.55;;
58250;SDS011;51449;51.676;5.812;2022-12-18T00:11:41;61.53;;;24.37;;
58250;SDS011;51449;51.676;5.812;2022-12-18T00:14:03;61.10;;;24.00;;
58250;SDS011;51449;51.676;5.812;2022-12-18T00:16:25;54.50;;;23.80;;
58250;SDS011;51449;51.676;5.812;2022-12-18T00:18:52;57.07;;;25.20;;
58250;SDS011;51449;51.676;5.812;2022-12-18T00:21:16;59.43;;;24.70;;
58250;SDS011;51449;51.676;5.812;2022-12-18T00:23:40;53.77;;;23.33;;
58250;SDS011;51449;51.676;5.812;2022-12-18T00:26:10;56.42;;;23.60;;
58250;SDS011;51449;51.676;5.812;2022-12-18T00:28:37;56.38;;;24.67;;
58250;SDS011;51449;51.676;5.812;2022-12-18T00:31:02;56.30;;;24.27;;
58250;SDS011;51449;51.676;5.812;2022-12-18T00:33:37;57.67;;;25.17;;
58250;SDS011;51449;51.676;5.812;2022-12-18T00:36:04;58.10;;;23.65;;
58250;SDS011;51449;51.676;5.812;2022-12-18T00:38:35;54.03;;;25.43;;
58250;SDS011;51449;51.676;5.812;2022-12-18T00:40:57;54.92;;;22.13;;
58250;SDS011;51449;51.676;5.812;2022-12-18T00:43:19;50.47;;;21.60;;
58250;SDS011;51449;51.676;5.812;2022-12-18T00:45:41;54.63;;;22.95;;
58250;SDS011;51449;51.676;5.812;2022-12-18T00:48:04;53.72;;;22.40;;
58250;SDS011;51449;51.676;5.812;2022-12-18T00:50:26;57.20;;;23.75;;
58250;SDS011;51449;51.676;5.812;2022-12-18T00:52:48;58.33;;;24.10;;
58250;SDS011;51449;51.676;5.812;2022-12-18T00:55:10;66.22;;;27.40;;
58250;SDS011;51449;51.676;5.812;2022-12-18T00:57:33;63.03;;;25.30;;
58250;SDS011;51449;51.676;5.812;2022-12-18T00:59:55;63.08;;;25.20;;
58250;SDS011;51449;51.676;5.812;2022-12-18T01:02:17;63.55;;;26.08;;
58250;SDS011;51449;51.676;5.812;2022-12-18T01:04:39;67.78;;;27.30;;
58250;SDS011;51449;51.676;5.812;2022-12-18T01:07:01;64.60;;;26.23;;
58250;SDS011;51449;51.676;5.812;2022-12-18T01:09:23;86.80;;;38.53;;
58250;SDS011;51449;51.676;5.812;2022-12-18T01:11:45;59.67;;;29.52;;
58250;SDS011;51449;51.676;5.812;2022-12-18T01:14:07;64.25;;;29.55;;
58250;SDS011;51449;51.676;5.812;2022-12-18T01:16:31;60.00;;;27.63;;
58250;SDS011;51449;51.676;5.812;2022-12-18T01:18:53;47.90;;;22.70;;
58250;SDS011;51449;51.676;5.812;2022-12-18T01:21:16;50.00;;;21.92;;
58250;SDS011;51449;51.676;5.812;2022-12-18T01:23:38;45.85;;;20.77;;
58250;SDS011;51449;51.676;5.812;2022-12-18T01:26:05;47.35;;;21.02;;
58250;SDS011;51449;51.676;5.812;2022-12-18T01:28:34;47.92;;;22.23;;
58250;SDS011;51449;51.676;5.812;2022-12-18T01:30:56;48.20;;;21.80;;
58250;SDS011;51449;51.676;5.812;2022-12-18T01:33:18;47.95;;;22.02;;
58250;SDS011;51449;51.676;5.812;2022-12-18T01:35:41;45.20;;;22.45;;
58250;SDS011;51449;51.676;5.812;2022-12-18T01:38:03;57.53;;;23.38;;
58250;SDS011;51449;51.676;5.812;2022-12-18T01:40:25;48.55;;;22.13;;
58250;SDS011;51449;51.676;5.812;2022-12-18T01:42:51;52.22;;;22.45;;
58250;SDS011;51449;51.676;5.812;2022-12-18T01:47:49;56.80;;;22.95;;
58250;SDS011;51449;51.676;5.812;2022-12-18T01:50:21;51.83;;;22.88;;
58250;SDS011;51449;51.676;5.812;2022-12-18T01:55:30;50.08;;;21.50;;
58250;SDS011;51449;51.676;5.812;2022-12-18T01:57:59;47.05;;;19.98;;
58250;SDS011;51449;51.676;5.812;2022-12-18T02:00:22;43.30;;;20.33;;
58250;SDS011;51449;51.676;5.812;2022-12-18T02:02:48;41.58;;;19.40;;
58250;SDS011;51449;51.676;5.812;2022-12-18T02:05:14;43.30;;;20.42;;
58250;SDS011;51449;51.676;5.812;2022-12-18T02:07:43;41.38;;;19.40;;
58250;SDS011;51449;51.676;5.812;2022-12-18T02:10:31;42.47;;;19.92;;
58250;SDS011;51449;51.676;5.812;2022-12-18T02:16:19;43.33;;;18.98;;
58250;SDS011;51449;51.676;5.812;2022-12-18T02:18:58;43.22;;;20.25;;
58250;SDS011;51449;51.676;5.812;2022-12-18T02:21:45;39.75;;;18.80;;
58250;SDS011;51449;51.676;5.812;2022-12-18T02:24:45;41.08;;;18.30;;
58250;SDS011;51449;51.676;5.812;2022-12-18T02:27:54;35.95;;;17.67;;
58250;SDS011;51449;51.676;5.812;2022-12-18T02:30:22;39.08;;;18.10;;
58250;SDS011;51449;51.676;5.812;2022-12-18T02:32:46;38.42;;;19.08;;
58250;SDS011;51449;51.676;5.812;2022-12-18T02:35:16;37.90;;;17.42;;
58250;SDS011;51449;51.676;5.812;2022-12-18T02:37:48;39.38;;;19.25;;
58250;SDS011;51449;51.676;5.812;2022-12-18T02:40:11;35.78;;;17.42;;
58250;SDS011;51449;51.676;5.812;2022-12-18T02:42:35;33.08;;;15.82;;
58250;SDS011;51449;51.676;5.812;2022-12-18T02:45:00;36.47;;;17.42;;
58250;SDS011;51449;51.676;5.812;2022-12-18T02:47:22;37.13;;;19.42;;
58250;SDS011;51449;51.676;5.812;2022-12-18T02:53:13;40.65;;;18.45;;
58250;SDS011;51449;51.676;5.812;2022-12-18T02:59:02;37.00;;;18.08;;
58250;SDS011;51449;51.676;5.812;2022-12-18T03:01:52;36.38;;;15.93;;
58250;SDS011;51449;51.676;5.812;2022-12-18T03:04:38;38.13;;;16.15;;
58250;SDS011;51449;51.676;5.812;2022-12-18T03:07:16;36.92;;;16.88;;
58250;SDS011;51449;51.676;5.812;2022-12-18T03:09:50;37.63;;;16.73;;
58250;SDS011;51449;51.676;5.812;2022-12-18T03:12:32;32.20;;;15.63;;
58250;SDS011;51449;51.676;5.812;2022-12-18T03:15:08;30.13;;;16.08;;
58250;SDS011;51449;51.676;5.812;2022-12-18T03:17:40;34.10;;;16.60;;
58250;SDS011;51449;51.676;5.812;2022-12-18T03:20:12;32.13;;;15.35;;
58250;SDS011;51449;51.676;5.812;2022-12-18T03:22:40;31.52;;;16.52;;
58250;SDS011;51449;51.676;5.812;2022-12-18T03:25:09;35.17;;;15.35;;
58250;SDS011;51449;51.676;5.812;2022-12-18T03:27:37;31.90;;;15.88;;
58250;SDS011;51449;51.676;5.812;2022-12-18T03:30:10;36.53;;;17.73;;
58250;SDS011;51449;51.676;5.812;2022-12-18T03:32:42;31.30;;;15.32;;
58250;SDS011;51449;51.676;5.812;2022-12-18T03:35:21;29.42;;;15.77;;
58250;SDS011;51449;51.676;5.812;2022-12-18T03:37:51;31.17;;;16.23;;
58250;SDS011;51449;51.676;5.812;2022-12-18T03:40:14;34.30;;;16.48;;
58250;SDS011;51449;51.676;5.812;2022-12-18T03:42:40;33.20;;;16.52;;
58250;SDS011;51449;51.676;5.812;2022-12-18T03:45:18;28.60;;;14.68;;
58250;SDS011;51449;51.676;5.812;2022-12-18T03:47:58;28.08;;;14.48;;
58250;SDS011;51449;51.676;5.812;2022-12-18T03:55:52;26.67;;;13.45;;
58250;SDS011;51449;51.676;5.812;2022-12-18T03:58:22;29.52;;;14.70;;
58250;SDS011;51449;51.676;5.812;2022-12-18T04:00:56;30.45;;;15.85;;
58250;SDS011;51449;51.676;5.812;2022-12-18T04:03:24;29.10;;;13.80;;
58250;SDS011;51449;51.676;5.812;2022-12-18T04:05:51;32.05;;;15.00;;
58250;SDS011;51449;51.676;5.812;2022-12-18T04:08:16;27.85;;;13.57;;
58250;SDS011;51449;51.676;5.812;2022-12-18T04:10:48;29.02;;;14.93;;
58250;SDS011;51449;51.676;5.812;2022-12-18T04:13:10;28.27;;;13.73;;
58250;SDS011;51449;51.676;5.812;2022-12-18T04:15:33;29.17;;;14.20;;
58250;SDS011;51449;51.676;5.812;2022-12-18T04:17:59;26.63;;;15.15;;
58250;SDS011;51449;51.676;5.812;2022-12-18T04:20:29;31.00;;;14.25;;
58250;SDS011;51449;51.676;5.812;2022-12-18T04:22:52;29.63;;;14.70;;
58250;SDS011;51449;51.676;5.812;2022-12-18T04:25:14;28.17;;;13.90;;
58250;SDS011;51449;51.676;5.812;2022-12-18T04:27:48;28.73;;;14.73;;
58250;SDS011;51449;51.676;5.812;2022-12-18T04:30:10;25.10;;;13.75;;
58250;SDS011;51449;51.676;5.812;2022-12-18T04:32:33;30.35;;;13.35;;
58250;SDS011;51449;51.676;5.812;2022-12-18T04:34:55;28.27;;;14.32;;
58250;SDS011;51449;51.676;5.812;2022-12-18T04:37:18;27.00;;;12.93;;
58250;SDS011;51449;51.676;5.812;2022-12-18T04:39:40;26.42;;;13.15;;
58250;SDS011;51449;51.676;5.812;2022-12-18T04:42:09;26.23;;;14.10;;
58250;SDS011;51449;51.676;5.812;2022-12-18T04:44:31;24.10;;;13.82;;
58250;SDS011;51449;51.676;5.812;2022-12-18T04:46:53;27.23;;;13.30;;
58250;SDS011;51449;51.676;5.812;2022-12-18T04:49:16;26.40;;;13.23;;
58250;SDS011;51449;51.676;5.812;2022-12-18T04:51:38;28.08;;;12.77;;
58250;SDS011;51449;51.676;5.812;2022-12-18T04:54:00;41.83;;;14.15;;
58250;SDS011;51449;51.676;5.812;2022-12-18T04:56:22;24.40;;;13.98;;
58250;SDS011;51449;51.676;5.812;2022-12-18T04:58:45;28.63;;;13.57;;
58250;SDS011;51449;51.676;5.812;2022-12-18T05:01:07;24.08;;;13.63;;
58250;SDS011;51449;51.676;5.812;2022-12-18T05:03:30;28.92;;;14.07;;
58250;SDS011;51449;51.676;5.812;2022-12-18T05:05:53;26.13;;;13.18;;
58250;SDS011;51449;51.676;5.812;2022-12-18T05:08:15;25.83;;;12.60;;
58250;SDS011;51449;51.676;5.812;2022-12-18T05:10:37;25.95;;;13.25;;
58250;SDS011;51449;51.676;5.812;2022-12-18T05:12:58;28.00;;;13.13;;
58250;SDS011;51449;51.676;5.812;2022-12-18T05:15:21;24.20;;;12.70;;
58250;SDS011;51449;51.676;5.812;2022-12-18T05:17:43;27.05;;;14.10;;
58250;SDS011;51449;51.676;5.812;2022-12-18T05:20:06;26.02;;;12.52;;
58250;SDS011;51449;51.676;5.812;2022-12-18T05:22:28;25.63;;;12.90;;
58250;SDS011;51449;51.676;5.812;2022-12-18T05:24:50;25.42;;;13.18;;
58250;SDS011;51449;51.676;5.812;2022-12-18T05:27:12;26.08;;;13.75;;
58250;SDS011;51449;51.676;5.812;2022-12-18T05:29:34;29.23;;;13.85;;
58250;SDS011;51449;51.676;5.812;2022-12-18T05:31:55;29.38;;;14.18;;
58250;SDS011;51449;51.676;5.812;2022-12-18T05:34:17;28.48;;;13.05;;
58250;SDS011;51449;51.676;5.812;2022-12-18T05:36:39;24.10;;;13.60;;
58250;SDS011;51449;51.676;5.812;2022-12-18T05:39:01;28.30;;;12.95;;
58250;SDS011;51449;51.676;5.812;2022-12-18T05:41:24;23.25;;;12.52;;
58250;SDS011;51449;51.676;5.812;2022-12-18T05:43:46;25.17;;;12.77;;
58250;SDS011;51449;51.676;5.812;2022-12-18T05:46:11;21.55;;;12.88;;
58250;SDS011;51449;51.676;5.812;2022-12-18T05:48:36;25.42;;;13.15;;
58250;SDS011;51449;51.676;5.812;2022-12-18T05:51:03;26.08;;;13.57;;
58250;SDS011;51449;51.676;5.812;2022-12-18T05:53:28;26.50;;;13.23;;
58250;SDS011;51449;51.676;5.812;2022-12-18T05:55:50;27.00;;;14.05;;
58250;SDS011;51449;51.676;5.812;2022-12-18T05:58:12;26.92;;;14.27;;
58250;SDS011;51449;51.676;5.812;2022-12-18T06:03:02;29.58;;;14.63;;
58250;SDS011;51449;51.676;5.812;2022-12-18T06:05:24;28.58;;;14.45;;
58250;SDS011;51449;51.676;5.812;2022-12-18T06:07:46;27.77;;;13.77;;
58250;SDS011;51449;51.676;5.812;2022-12-18T06:10:08;24.52;;;13.35;;
58250;SDS011;51449;51.676;5.812;2022-12-18T06:12:30;25.75;;;12.82;;
58250;SDS011;51449;51.676;5.812;2022-12-18T06:14:54;25.08;;;12.88;;
58250;SDS011;51449;51.676;5.812;2022-12-18T06:17:16;29.88;;;15.25;;
58250;SDS011;51449;51.676;5.812;2022-12-18T06:19:38;23.92;;;12.70;;
58250;SDS011;51449;51.676;5.812;2022-12-18T06:22:00;26.48;;;13.95;;
58250;SDS011;51449;51.676;5.812;2022-12-18T06:24:22;28.35;;;13.40;;
58250;SDS011;51449;51.676;5.812;2022-12-18T06:26:43;28.83;;;13.57;;
58250;SDS011;51449;51.676;5.812;2022-12-18T06:29:05;25.95;;;13.25;;
58250;SDS011;51449;51.676;5.812;2022-12-18T06:31:27;27.90;;;15.13;;
58250;SDS011;51449;51.676;5.812;2022-12-18T06:33:50;27.75;;;13.27;;
58250;SDS011;51449;51.676;5.812;2022-12-18T06:36:12;27.88;;;14.60;;
58250;SDS011;51449;51.676;5.812;2022-12-18T06:38:35;27.85;;;13.55;;
58250;SDS011;51449;51.676;5.812;2022-12-18T06:41:00;28.40;;;13.88;;
58250;SDS011;51449;51.676;5.812;2022-12-18T06:43:27;27.48;;;13.30;;
58250;SDS011;51449;51.676;5.812;2022-12-18T06:45:48;29.83;;;14.43;;
58250;SDS011;51449;51.676;5.812;2022-12-18T06:48:14;26.35;;;13.32;;
58250;SDS011;51449;51.676;5.812;2022-12-18T06:50:35;29.20;;;14.00;;
58250;SDS011;51449;51.676;5.812;2022-12-18T06:52:57;26.75;;;13.70;;
58250;SDS011;51449;51.676;5.812;2022-12-18T06:55:19;27.95;;;14.23;;
58250;SDS011;51449;51.676;5.812;2022-12-18T06:57:41;27.90;;;13.80;;
58250;SDS011;51449;51.676;5.812;2022-12-18T07:00:04;27.17;;;13.15;;
58250;SDS011;51449;51.676;5.812;2022-12-18T07:02:28;28.40;;;13.73;;
58250;SDS011;51449;51.676;5.812;2022-12-18T07:04:50;24.77;;;12.18;;
58250;SDS011;51449;51.676;5.812;2022-12-18T07:07:11;24.65;;;13.18;;
58250;SDS011;51449;51.676;5.812;2022-12-18T07:09:34;26.25;;;13.02;;
58250;SDS011;51449;51.676;5.812;2022-12-18T07:11:56;25.50;;;13.60;;
58250;SDS011;51449;51.676;5.812;2022-12-18T07:14:18;27.27;;;12.90;;
58250;SDS011;51449;51.676;5.812;2022-12-18T07:16:40;26.77;;;13.75;;
58250;SDS011;51449;51.676;5.812;2022-12-18T07:19:02;24.52;;;13.13;;
58250;SDS011;51449;51.676;5.812;2022-12-18T07:21:24;26.93;;;14.40;;
58250;SDS011;51449;51.676;5.812;2022-12-18T07:23:46;25.75;;;13.30;;
58250;SDS011;51449;51.676;5.812;2022-12-18T07:26:11;23.85;;;12.45;;
58250;SDS011;51449;51.676;5.812;2022-12-18T07:28:35;23.50;;;13.02;;
58250;SDS011;51449;51.676;5.812;2022-12-18T07:31:18;25.30;;;13.65;;
58250;SDS011;51449;51.676;5.812;2022-12-18T07:33:43;25.20;;;12.82;;
58250;SDS011;51449;51.676;5.812;2022-12-18T07:36:06;25.10;;;13.45;;
58250;SDS011;51449;51.676;5.812;2022-12-18T07:38:29;24.70;;;12.93;;
58250;SDS011;51449;51.676;5.812;2022-12-18T07:40:52;25.92;;;12.50;;
58250;SDS011;51449;51.676;5.812;2022-12-18T07:43:14;25.95;;;13.32;;
58250;SDS011;51449;51.676;5.812;2022-12-18T07:45:36;21.92;;;12.43;;
58250;SDS011;51449;51.676;5.812;2022-12-18T07:47:58;25.67;;;12.35;;
58250;SDS011;51449;51.676;5.812;2022-12-18T07:50:20;25.58;;;13.07;;
58250;SDS011;51449;51.676;5.812;2022-12-18T07:52:41;25.98;;;13.63;;
58250;SDS011;51449;51.676;5.812;2022-12-18T07:55:04;27.20;;;13.27;;
58250;SDS011;51449;51.676;5.812;2022-12-18T07:57:27;28.17;;;13.80;;
58250;SDS011;51449;51.676;5.812;2022-12-18T08:00:09;27.17;;;14.35;;
58250;SDS011;51449;51.676;5.812;2022-12-18T08:02:33;24.70;;;12.30;;
58250;SDS011;51449;51.676;5.812;2022-12-18T08:04:55;27.83;;;12.95;;
58250;SDS011;51449;51.676;5.812;2022-12-18T08:07:17;24.88;;;12.70;;
58250;SDS011;51449;51.676;5.812;2022-12-18T08:09:39;24.00;;;12.85;;
58250;SDS011;51449;51.676;5.812;2022-12-18T08:12:01;26.67;;;13.82;;
58250;SDS011;51449;51.676;5.812;2022-12-18T08:14:24;26.30;;;13.85;;
58250;SDS011;51449;51.676;5.812;2022-12-18T08:16:46;28.52;;;13.65;;
58250;SDS011;51449;51.676;5.812;2022-12-18T08:19:08;26.95;;;13.85;;
58250;SDS011;51449;51.676;5.812;2022-12-18T08:21:30;30.03;;;15.60;;
58250;SDS011;51449;51.676;5.812;2022-12-18T08:23:53;26.50;;;13.70;;
58250;SDS011;51449;51.676;5.812;2022-12-18T08:26:17;28.63;;;14.65;;
58250;SDS011;51449;51.676;5.812;2022-12-18T08:28:41;31.23;;;15.30;;
58250;SDS011;51449;51.676;5.812;2022-12-18T08:31:03;31.53;;;14.50;;
58250;SDS011;51449;51.676;5.812;2022-12-18T08:33:26;30.02;;;15.20;;
58250;SDS011;51449;51.676;5.812;2022-12-18T08:35:48;28.57;;;14.77;;
58250;SDS011;51449;51.676;5.812;2022-12-18T08:38:10;27.60;;;12.80;;
58250;SDS011;51449;51.676;5.812;2022-12-18T08:40:32;29.90;;;13.63;;
58250;SDS011;51449;51.676;5.812;2022-12-18T08:42:54;27.00;;;13.57;;
58250;SDS011;51449;51.676;5.812;2022-12-18T08:45:35;29.25;;;15.25;;
58250;SDS011;51449;51.676;5.812;2022-12-18T08:47:57;27.17;;;13.13;;
58250;SDS011;51449;51.676;5.812;2022-12-18T08:50:19;27.77;;;13.40;;
58250;SDS011;51449;51.676;5.812;2022-12-18T08:52:41;25.63;;;13.40;;
58250;SDS011;51449;51.676;5.812;2022-12-18T08:55:03;27.13;;;14.13;;
58250;SDS011;51449;51.676;5.812;2022-12-18T08:57:26;24.37;;;12.77;;
58250;SDS011;51449;51.676;5.812;2022-12-18T08:59:48;25.97;;;13.20;;
58250;SDS011;51449;51.676;5.812;2022-12-18T09:02:10;25.70;;;14.17;;
58250;SDS011;51449;51.676;5.812;2022-12-18T09:04:33;26.07;;;13.27;;
58250;SDS011;51449;51.676;5.812;2022-12-18T09:06:55;24.37;;;13.63;;
58250;SDS011;51449;51.676;5.812;2022-12-18T09:09:17;25.53;;;13.50;;
58250;SDS011;51449;51.676;5.812;2022-12-18T09:11:39;25.07;;;13.67;;
58250;SDS011;51449;51.676;5.812;2022-12-18T09:14:01;24.00;;;13.13;;
58250;SDS011;51449;51.676;5.812;2022-12-18T09:16:24;26.63;;;13.67;;
58250;SDS011;51449;51.676;5.812;2022-12-18T09:18:54;23.00;;;12.87;;
58250;SDS011;51449;51.676;5.812;2022-12-18T09:21:20;36.47;;;19.37;;
58250;SDS011;51449;51.676;5.812;2022-12-18T09:23:44;34.13;;;17.73;;
58250;SDS011;51449;51.676;5.812;2022-12-18T09:26:11;37.33;;;19.27;;
58250;SDS011;51449;51.676;5.812;2022-12-18T09:28:33;27.67;;;14.20;;
58250;SDS011;51449;51.676;5.812;2022-12-18T09:30:55;31.03;;;16.77;;
58250;SDS011;51449;51.676;5.812;2022-12-18T09:33:17;82.50;;;40.30;;
58250;SDS011;51449;51.676;5.812;2022-12-18T09:35:40;37.90;;;23.23;;
58250;SDS011;51449;51.676;5.812;2022-12-18T09:38:04;28.67;;;15.03;;
58250;SDS011;51449;51.676;5.812;2022-12-18T09:40:33;24.60;;;13.77;;
58250;SDS011;51449;51.676;5.812;2022-12-18T09:43:03;26.10;;;14.37;;
58250;SDS011;51449;51.676;5.812;2022-12-18T09:45:40;28.37;;;14.47;;
58250;SDS011;51449;51.676;5.812;2022-12-18T09:48:11;23.23;;;12.73;;
58250;SDS011;51449;51.676;5.812;2022-12-18T09:50:50;24.73;;;13.23;;
58250;SDS011;51449;51.676;5.812;2022-12-18T09:53:20;22.63;;;12.57;;
58250;SDS011;51449;51.676;5.812;2022-12-18T09:55:50;23.23;;;13.07;;
58250;SDS011;51449;51.676;5.812;2022-12-18T09:58:32;22.60;;;12.53;;
58250;SDS011;51449;51.676;5.812;2022-12-18T10:01:13;26.83;;;14.13;;
58250;SDS011;51449;51.676;5.812;2022-12-18T10:03:44;24.30;;;12.83;;
58250;SDS011;51449;51.676;5.812;2022-12-18T10:15:00;24.57;;;14.20;;
58250;SDS011;51449;51.676;5.812;2022-12-18T10:20:24;25.57;;;13.80;;
58250;SDS011;51449;51.676;5.812;2022-12-18T10:25:44;24.57;;;12.60;;
58250;SDS011;51449;51.676;5.812;2022-12-18T10:28:32;20.57;;;11.93;;
58250;SDS011;51449;51.676;5.812;2022-12-18T10:31:02;22.67;;;12.20;;
58250;SDS011;51449;51.676;5.812;2022-12-18T10:33:39;22.13;;;12.20;;
58250;SDS011;51449;51.676;5.812;2022-12-18T10:36:02;21.92;;;11.85;;
58250;SDS011;51449;51.676;5.812;2022-12-18T10:38:29;19.87;;;11.57;;
58250;SDS011;51449;51.676;5.812;2022-12-18T10:43:28;21.87;;;12.40;;
58250;SDS011;51449;51.676;5.812;2022-12-18T10:46:03;25.37;;;12.37;;
58250;SDS011;51449;51.676;5.812;2022-12-18T10:48:30;19.77;;;11.93;;
58250;SDS011;51449;51.676;5.812;2022-12-18T10:50:56;21.83;;;11.60;;
58250;SDS011;51449;51.676;5.812;2022-12-18T10:53:36;21.30;;;12.43;;
58250;SDS011;51449;51.676;5.812;2022-12-18T10:56:00;25.17;;;12.77;;
58250;SDS011;51449;51.676;5.812;2022-12-18T10:58:27;23.77;;;12.47;;
58250;SDS011;51449;51.676;5.812;2022-12-18T11:03:41;28.80;;;15.50;;
58250;SDS011;51449;51.676;5.812;2022-12-18T21:42:03;40.80;;;20.57;;
58250;SDS011;51449;51.676;5.812;2022-12-18T23:42:13;48.60;;;23.50;;
58250;SDS011;51449;51.676;5.812;2022-12-18T23:48:58;50.87;;;23.73;;
58250;SDS011;51449;51.676;5.812;2022-12-18T23:55:28;54.65;;;24.15;;
58250;SDS011;51449;51.676;5.812;2022-12-18T23:57:52;49.07;;;23.83;;
